createdAt,value
2018-10-17T00:01:34.311Z,15.93
2018-10-17T00:04:02.528Z,23.47
2018-10-17T00:06:30.656Z,19.93
2018-10-17T00:08:58.737Z,19.90
2018-10-17T00:11:26.870Z,18.60
2018-10-17T00:13:54.951Z,16.13
2018-10-17T00:16:23.108Z,20.30
2018-10-17T00:18:51.246Z,17.70
2018-10-17T00:21:20.347Z,22.47
2018-10-17T00:23:48.450Z,19.77
2018-10-17T00:26:16.608Z,19.27
2018-10-17T00:28:44.688Z,17.63
2018-10-17T00:31:12.828Z,19.17
2018-10-17T00:33:40.935Z,20.63
2018-10-17T00:36:09.015Z,18.43
2018-10-17T00:38:37.150Z,21.30
2018-10-17T00:41:05.322Z,22.03
2018-10-17T00:43:33.388Z,19.93
2018-10-17T00:46:01.491Z,17.60
2018-10-17T00:48:29.608Z,19.67
2018-10-17T00:50:57.751Z,22.97
2018-10-17T00:53:25.904Z,15.17
2018-10-17T00:55:54.035Z,15.87
2018-10-17T00:58:22.186Z,17.30
2018-10-17T01:00:50.299Z,19.03
2018-10-17T01:03:18.423Z,19.40
2018-10-17T01:05:46.583Z,15.57
2018-10-17T01:08:14.683Z,18.27
2018-10-17T01:10:42.849Z,18.73
2018-10-17T01:13:11.124Z,19.13
2018-10-17T01:15:39.048Z,17.07
2018-10-17T01:18:07.170Z,20.57
2018-10-17T01:20:35.294Z,17.97
2018-10-17T01:23:03.464Z,15.10
2018-10-17T01:25:31.565Z,16.77
2018-10-17T01:28:01.818Z,18.80
2018-10-17T01:30:29.889Z,18.70
2018-10-17T01:32:58.004Z,21.90
2018-10-17T01:35:26.172Z,17.70
2018-10-17T01:37:54.315Z,15.10
2018-10-17T01:40:22.456Z,18.30
2018-10-17T01:42:50.571Z,16.30
2018-10-17T01:45:18.951Z,24.37
2018-10-17T01:47:47.058Z,18.57
2018-10-17T01:50:15.170Z,21.47
2018-10-17T01:52:43.353Z,25.90
2018-10-17T01:55:11.565Z,15.83
2018-10-17T01:57:39.920Z,20.13
2018-10-17T02:00:08.010Z,15.47
2018-10-17T02:02:36.097Z,24.57
2018-10-17T02:05:04.576Z,21.27
2018-10-17T02:07:32.641Z,17.33
2018-10-17T02:10:00.711Z,16.53
2018-10-17T02:12:28.838Z,17.60
2018-10-17T02:14:56.928Z,17.43
2018-10-17T02:17:25.019Z,21.40
2018-10-17T02:19:53.383Z,19.03
2018-10-17T02:22:21.499Z,22.30
2018-10-17T02:24:49.609Z,24.93
2018-10-17T02:27:17.748Z,21.70
2018-10-17T02:29:45.853Z,19.47
2018-10-17T02:32:14.052Z,23.83
2018-10-17T02:34:47.657Z,20.47
2018-10-17T02:37:16.188Z,22.13
2018-10-17T02:39:44.357Z,19.23
2018-10-17T02:42:12.367Z,19.37
2018-10-17T02:44:40.522Z,22.40
2018-10-17T02:47:08.752Z,18.80
2018-10-17T02:49:36.830Z,23.97
2018-10-17T02:52:05.191Z,22.53
2018-10-17T02:54:33.656Z,17.90
2018-10-17T02:57:01.765Z,19.47
2018-10-17T02:59:29.873Z,18.73
2018-10-17T03:01:58.021Z,17.10
2018-10-17T03:04:26.165Z,21.67
2018-10-17T03:06:54.328Z,20.00
2018-10-17T03:09:22.444Z,24.67
2018-10-17T03:11:50.584Z,20.60
2018-10-17T03:14:18.711Z,17.30
2018-10-17T03:16:46.838Z,19.37
2018-10-17T03:19:15.013Z,19.60
2018-10-17T03:21:43.076Z,15.93
2018-10-17T03:24:11.269Z,18.87
2018-10-17T03:26:39.372Z,21.40
2018-10-17T03:29:07.574Z,19.70
2018-10-17T03:31:35.759Z,17.03
2018-10-17T03:34:03.780Z,18.40
2018-10-17T03:36:31.955Z,17.67
2018-10-17T03:39:00.114Z,19.83
2018-10-17T03:41:28.182Z,17.17
2018-10-17T03:43:56.539Z,17.23
2018-10-17T03:46:24.655Z,16.30
2018-10-17T03:48:52.808Z,16.07
2018-10-17T03:51:20.924Z,15.50
2018-10-17T03:53:49.103Z,16.37
2018-10-17T03:56:17.219Z,18.20
2018-10-17T03:58:45.292Z,19.57
2018-10-17T04:01:13.539Z,16.00
2018-10-17T04:03:41.579Z,17.20
2018-10-17T04:06:09.688Z,18.10
2018-10-17T04:08:37.811Z,20.03
2018-10-17T04:11:06.013Z,17.07
2018-10-17T04:13:34.119Z,23.50
2018-10-17T04:16:02.296Z,21.33
2018-10-17T04:18:30.421Z,16.40
2018-10-17T04:20:58.584Z,16.20
2018-10-17T04:23:26.684Z,16.03
2018-10-17T04:25:55.064Z,16.30
2018-10-17T04:28:23.179Z,18.43
2018-10-17T04:30:51.264Z,20.53
2018-10-17T04:33:19.401Z,19.40
2018-10-17T04:35:47.571Z,18.90
2018-10-17T04:38:15.950Z,15.50
2018-10-17T04:40:44.023Z,17.87
2018-10-17T04:43:12.378Z,17.17
2018-10-17T04:45:40.422Z,19.30
2018-10-17T04:48:08.524Z,19.13
2018-10-17T04:50:36.673Z,16.17
2018-10-17T04:53:05.199Z,20.63
2018-10-17T04:55:33.301Z,24.47
2018-10-17T04:58:01.389Z,19.93
2018-10-17T05:00:29.543Z,19.10
2018-10-17T05:02:57.643Z,20.23
2018-10-17T05:05:25.764Z,23.60
2018-10-17T05:07:53.893Z,20.40
2018-10-17T05:10:22.019Z,21.10
2018-10-17T05:12:50.153Z,15.37
2018-10-17T05:15:18.368Z,23.53
2018-10-17T05:17:46.504Z,26.23
2018-10-17T05:20:14.600Z,22.50
2018-10-17T05:22:42.747Z,25.40
2018-10-17T05:25:10.979Z,24.40
2018-10-17T05:27:39.023Z,18.73
2018-10-17T05:30:07.267Z,20.77
2018-10-17T05:32:35.408Z,27.73
2018-10-17T05:35:03.566Z,25.37
2018-10-17T05:37:31.852Z,20.70
2018-10-17T05:39:59.964Z,22.67
2018-10-17T05:42:28.046Z,21.30
2018-10-17T05:44:56.146Z,26.77
2018-10-17T05:47:24.298Z,23.23
2018-10-17T05:49:52.406Z,20.33
2018-10-17T05:52:20.555Z,22.43
2018-10-17T05:54:48.779Z,20.83
2018-10-17T05:57:16.902Z,21.37
2018-10-17T05:59:45.203Z,21.17
2018-10-17T06:02:31.907Z,27.60
2018-10-17T06:04:59.939Z,23.17
2018-10-17T06:07:28.038Z,18.80
2018-10-17T06:09:56.435Z,25.73
2018-10-17T06:12:24.577Z,19.70
2018-10-17T06:14:52.696Z,21.33
2018-10-17T06:17:20.875Z,19.83
2018-10-17T06:19:48.958Z,24.20
2018-10-17T06:22:17.050Z,23.77
2018-10-17T06:24:45.327Z,20.10
2018-10-17T06:27:13.484Z,23.30
2018-10-17T06:29:41.811Z,21.13
2018-10-17T06:32:09.912Z,25.00
2018-10-17T06:34:38.067Z,30.13
2018-10-17T06:37:06.348Z,28.07
2018-10-17T06:39:34.374Z,23.50
2018-10-17T06:42:02.531Z,19.70
2018-10-17T06:44:30.639Z,24.10
2018-10-17T06:46:58.779Z,19.90
2018-10-17T06:49:26.887Z,19.80
2018-10-17T06:51:55.025Z,21.40
2018-10-17T06:54:23.187Z,20.30
2018-10-17T06:56:51.264Z,33.60
2018-10-17T06:59:19.398Z,26.93
2018-10-17T07:01:47.630Z,22.43
2018-10-17T07:04:15.705Z,24.07
2018-10-17T07:06:43.787Z,35.03
2018-10-17T07:09:11.889Z,43.53
2018-10-17T07:11:40.291Z,32.40
2018-10-17T07:14:08.639Z,28.90
2018-10-17T07:16:36.736Z,29.73
2018-10-17T07:19:05.320Z,33.93
2018-10-17T07:21:33.332Z,25.77
2018-10-17T07:24:01.436Z,26.00
2018-10-17T07:26:29.518Z,24.93
2018-10-17T07:28:57.755Z,24.10
2018-10-17T07:31:25.753Z,28.33
2018-10-17T07:33:53.843Z,27.30
2018-10-17T07:36:21.979Z,24.97
2018-10-17T07:38:50.129Z,23.83
2018-10-17T07:41:18.278Z,24.40
2018-10-17T07:43:46.416Z,31.30
2018-10-17T07:46:14.524Z,30.93
2018-10-17T07:48:42.610Z,28.00
2018-10-17T07:51:10.744Z,25.67
2018-10-17T07:53:38.952Z,29.73
2018-10-17T07:56:06.982Z,26.70
2018-10-17T07:58:35.092Z,26.13
2018-10-17T08:01:03.180Z,27.60
2018-10-17T08:03:31.306Z,29.40
2018-10-17T08:06:00.981Z,33.07
2018-10-17T08:08:29.045Z,32.40
2018-10-17T08:10:57.121Z,33.40
2018-10-17T08:13:25.316Z,31.53
2018-10-17T08:15:53.386Z,31.17
2018-10-17T08:18:21.447Z,29.47
2018-10-17T08:20:49.563Z,37.00
2018-10-17T08:23:17.682Z,34.50
2018-10-17T08:25:45.801Z,40.63
2018-10-17T08:28:13.893Z,41.53
2018-10-17T08:30:41.998Z,38.40
2018-10-17T08:33:10.072Z,39.87
2018-10-17T08:35:38.284Z,43.90
2018-10-17T08:38:06.358Z,46.37
2018-10-17T08:40:34.427Z,37.30
2018-10-17T08:43:02.493Z,37.90
2018-10-17T08:45:30.656Z,39.30
2018-10-17T08:47:58.787Z,36.83
2018-10-17T08:50:26.847Z,38.83
2018-10-17T08:52:54.902Z,40.50
2018-10-17T08:55:23.001Z,39.43
2018-10-17T08:57:51.089Z,42.73
2018-10-17T09:00:19.209Z,43.70
2018-10-17T09:02:47.322Z,39.60
2018-10-17T09:05:15.449Z,40.27
2018-10-17T09:07:43.568Z,38.77
2018-10-17T09:10:11.923Z,43.47
2018-10-17T09:12:40.009Z,40.73
2018-10-17T09:15:08.109Z,38.20
2018-10-17T09:17:36.268Z,36.87
2018-10-17T09:20:05.421Z,35.70
2018-10-17T09:22:33.042Z,34.90
2018-10-17T09:25:01.144Z,38.13
2018-10-17T09:27:29.229Z,37.57
2018-10-17T09:29:57.394Z,37.40
2018-10-17T09:32:25.438Z,31.67
2018-10-17T09:34:53.585Z,37.50
2018-10-17T09:37:21.719Z,37.10
2018-10-17T09:39:49.839Z,36.00
2018-10-17T09:42:18.011Z,32.77
2018-10-17T09:44:46.112Z,34.03
2018-10-17T09:47:14.216Z,34.20
2018-10-17T09:49:42.314Z,31.33
2018-10-17T09:52:10.550Z,35.23
2018-10-17T09:54:38.628Z,37.93
2018-10-17T09:57:06.709Z,45.90
2018-10-17T09:59:35.301Z,30.57
2018-10-17T10:02:04.140Z,30.30
2018-10-17T10:04:32.480Z,32.33
2018-10-17T10:07:01.965Z,31.30
2018-10-17T10:09:30.766Z,32.20
2018-10-17T10:11:59.516Z,29.50
2018-10-17T10:14:28.312Z,32.10
2018-10-17T10:16:57.982Z,35.10
2018-10-17T10:19:26.100Z,34.93
2018-10-17T10:21:54.525Z,33.57
2018-10-17T10:24:22.561Z,33.40
2018-10-17T10:26:50.647Z,36.70
2018-10-17T10:29:18.804Z,38.03
2018-10-17T10:31:46.882Z,36.33
2018-10-17T10:34:15.068Z,39.20
2018-10-17T10:36:43.112Z,32.80
2018-10-17T10:39:12.353Z,34.07
2018-10-17T10:41:40.936Z,36.97
2018-10-17T10:44:09.146Z,37.80
2018-10-17T10:46:37.185Z,37.70
2018-10-17T10:49:05.370Z,41.90
2018-10-17T10:51:33.495Z,38.07
2018-10-17T10:54:01.599Z,37.03
2018-10-17T10:56:29.669Z,43.33
2018-10-17T10:58:57.872Z,38.10
2018-10-17T11:01:25.881Z,34.10
2018-10-17T11:03:54.000Z,35.43
2018-10-17T11:06:22.749Z,41.60
2018-10-17T11:08:50.829Z,41.30
2018-10-17T11:11:18.966Z,40.30
2018-10-17T11:13:47.109Z,39.10
2018-10-17T11:16:15.228Z,42.67
2018-10-17T11:18:43.353Z,37.27
2018-10-17T11:21:11.508Z,42.23
2018-10-17T11:23:39.646Z,38.30
2018-10-17T11:26:07.740Z,42.63
2018-10-17T11:28:35.792Z,42.20
2018-10-17T11:31:04.276Z,41.50
2018-10-17T11:33:32.418Z,35.73
2018-10-17T11:36:00.534Z,37.67
2018-10-17T11:38:28.639Z,37.83
2018-10-17T11:40:56.717Z,35.60
2018-10-17T11:43:24.783Z,34.87
2018-10-17T11:45:52.918Z,40.00
2018-10-17T11:48:21.011Z,31.80
2018-10-17T11:50:49.137Z,30.60
2018-10-17T11:53:17.295Z,37.80
2018-10-17T11:55:45.369Z,30.83
2018-10-17T11:58:13.441Z,40.03
2018-10-17T12:00:41.521Z,30.23
2018-10-17T12:03:09.698Z,29.47
2018-10-17T12:05:38.055Z,30.77
2018-10-17T12:08:05.892Z,30.53
2018-10-17T12:10:33.986Z,25.90
2018-10-17T12:13:02.117Z,29.70
2018-10-17T12:15:30.208Z,26.07
2018-10-17T12:17:58.306Z,34.90
2018-10-17T12:20:26.409Z,29.70
2018-10-17T12:22:54.490Z,30.37
2018-10-17T12:25:22.752Z,26.90
2018-10-17T12:27:50.856Z,33.40
2018-10-17T12:30:19.115Z,29.77
2018-10-17T12:32:47.030Z,32.73
2018-10-17T12:35:15.269Z,32.53
2018-10-17T12:37:43.340Z,37.70
2018-10-17T12:40:11.825Z,28.73
2018-10-17T12:42:39.885Z,30.37
2018-10-17T12:45:07.993Z,28.03
2018-10-17T12:47:36.140Z,25.20
2018-10-17T12:50:04.497Z,26.20
2018-10-17T12:52:32.654Z,30.43
2018-10-17T12:55:00.753Z,33.03
2018-10-17T12:57:29.064Z,25.77
2018-10-17T12:59:57.266Z,26.07
2018-10-17T13:02:25.439Z,28.70
2018-10-17T13:04:53.538Z,24.80
2018-10-17T13:07:21.636Z,27.27
2018-10-17T13:09:49.819Z,26.13
2018-10-17T13:12:17.890Z,23.33
2018-10-17T13:14:46.044Z,22.23
2018-10-17T13:17:14.211Z,25.70
2018-10-17T13:19:42.216Z,24.57
2018-10-17T13:22:10.564Z,26.30
2018-10-17T13:24:38.660Z,24.80
2018-10-17T13:27:06.930Z,21.00
2018-10-17T13:29:35.135Z,22.63
2018-10-17T13:32:03.403Z,20.27
2018-10-17T13:34:31.526Z,21.10
2018-10-17T13:36:59.658Z,20.27
2018-10-17T13:39:27.846Z,19.87
2018-10-17T13:41:56.020Z,23.20
2018-10-17T13:44:24.054Z,17.07
2018-10-17T13:46:52.183Z,20.57
2018-10-17T13:49:20.372Z,24.93
2018-10-17T13:51:48.333Z,21.87
2018-10-17T13:54:16.613Z,20.87
2018-10-17T13:56:44.674Z,20.70
2018-10-17T13:59:12.801Z,21.60
2018-10-17T14:01:40.909Z,19.00
2018-10-17T14:04:09.046Z,17.67
2018-10-17T14:06:37.189Z,20.00
2018-10-17T14:09:07.577Z,21.00
2018-10-17T14:11:35.702Z,23.97
2018-10-17T14:14:03.865Z,20.03
2018-10-17T14:16:31.947Z,20.33
2018-10-17T14:19:00.082Z,21.90
2018-10-17T14:21:28.169Z,18.50
2018-10-17T14:23:56.348Z,18.50
2018-10-17T14:26:24.361Z,22.17
2018-10-17T14:28:52.473Z,19.33
2018-10-17T14:31:20.546Z,19.10
2018-10-17T14:33:48.680Z,21.57
2018-10-17T14:36:16.805Z,22.70
2018-10-17T14:38:45.455Z,20.57
2018-10-17T14:41:13.617Z,21.50
2018-10-17T14:43:41.762Z,21.90
2018-10-17T14:46:09.837Z,21.23
2018-10-17T14:48:38.130Z,24.10
2018-10-17T14:51:06.218Z,17.73
2018-10-17T14:53:34.345Z,18.80
2018-10-17T14:56:02.472Z,18.80
2018-10-17T14:58:30.528Z,19.90
2018-10-17T15:00:58.640Z,25.20
2018-10-17T15:03:26.734Z,17.77
2018-10-17T15:05:54.828Z,20.00
2018-10-17T15:08:23.979Z,18.20
2018-10-17T15:10:52.234Z,15.50
2018-10-17T15:13:20.151Z,24.00
2018-10-17T15:15:48.277Z,30.20
2018-10-17T15:18:17.207Z,28.20
2018-10-17T15:20:45.231Z,16.43
2018-10-17T15:23:14.001Z,17.97
2018-10-17T15:25:42.077Z,19.57
2018-10-17T15:28:14.172Z,15.07
2018-10-17T15:30:42.341Z,16.70
2018-10-17T15:33:12.274Z,17.40
2018-10-17T15:35:44.024Z,16.80
2018-10-17T15:38:13.739Z,15.87
2018-10-17T15:40:44.985Z,19.23
2018-10-17T15:43:16.443Z,19.37
2018-10-17T15:45:47.548Z,19.00
2018-10-17T15:48:18.789Z,18.50
2018-10-17T16:07:43.266Z,21.10
2018-10-17T16:10:15.766Z,19.53
2018-10-17T16:12:43.987Z,25.87
2018-10-17T16:15:12.021Z,20.37
2018-10-17T16:17:40.260Z,24.30
2018-10-17T16:20:09.969Z,18.63
2018-10-17T16:22:38.997Z,23.63
2018-10-17T16:25:09.070Z,19.27
2018-10-17T16:27:37.277Z,29.77
2018-10-17T16:30:07.736Z,23.67
2018-10-17T16:32:35.739Z,31.43
2018-10-17T16:35:03.757Z,22.17
2018-10-17T16:37:31.775Z,23.60
2018-10-17T16:39:59.822Z,22.77
2018-10-17T16:42:27.874Z,25.70
2018-10-17T16:44:55.921Z,28.53
2018-10-17T16:47:24.020Z,25.63
2018-10-17T16:49:52.138Z,27.47
2018-10-17T16:52:20.089Z,30.43
2018-10-17T16:54:48.129Z,30.53
2018-10-17T16:57:16.233Z,30.83
2018-10-17T16:59:44.216Z,35.67
2018-10-17T17:02:12.480Z,27.87
2018-10-17T17:04:40.629Z,29.40
2018-10-17T17:07:08.823Z,28.70
2018-10-17T17:09:37.603Z,32.63
2018-10-17T17:12:06.195Z,31.17
2018-10-17T17:14:34.238Z,35.43
2018-10-17T17:17:02.208Z,29.17
2018-10-17T17:19:30.297Z,42.10
2018-10-17T17:21:58.554Z,36.77
2018-10-17T17:24:26.694Z,30.53
2018-10-17T17:26:55.597Z,37.30
2018-10-17T17:29:23.601Z,32.73
2018-10-17T17:31:51.909Z,31.33
2018-10-17T17:34:20.228Z,34.33
2018-10-17T17:36:48.370Z,35.13
2018-10-17T17:39:16.674Z,30.27
2018-10-17T17:41:44.851Z,37.33
2018-10-17T17:44:13.098Z,31.80
2018-10-17T17:46:41.197Z,42.70
2018-10-17T17:49:09.177Z,37.23
2018-10-17T17:51:37.286Z,30.20
2018-10-17T17:54:05.510Z,30.53
2018-10-17T17:56:40.522Z,25.63
2018-10-17T17:59:08.760Z,43.23
2018-10-17T18:01:36.836Z,32.60
2018-10-17T18:04:05.825Z,34.03
2018-10-17T18:06:34.043Z,35.30
2018-10-17T18:09:02.328Z,40.90
2018-10-17T18:11:30.702Z,32.50
2018-10-17T18:13:59.165Z,32.20
2018-10-17T18:16:27.279Z,39.90
2018-10-17T18:18:55.615Z,32.73
2018-10-17T18:21:24.256Z,33.43
2018-10-17T18:23:52.834Z,33.53
2018-10-17T18:26:20.917Z,29.67
2018-10-17T18:28:49.195Z,30.77
2018-10-17T18:31:17.290Z,35.03
2018-10-17T18:33:46.363Z,50.87
2018-10-17T18:36:14.436Z,46.10
2018-10-17T18:38:42.425Z,48.00
2018-10-17T18:41:10.471Z,46.67
2018-10-17T18:43:38.473Z,37.13
2018-10-17T18:46:06.544Z,42.40
2018-10-17T18:48:34.970Z,50.93
2018-10-17T18:51:03.132Z,48.53
2018-10-17T18:53:31.273Z,43.03
2018-10-17T18:55:59.459Z,43.30
2018-10-17T18:58:27.675Z,36.97
2018-10-17T19:00:55.781Z,45.80
2018-10-17T19:03:23.862Z,41.97
2018-10-17T19:05:52.078Z,56.53
2018-10-17T19:08:20.309Z,48.23
2018-10-17T19:10:48.291Z,47.03
2018-10-17T19:13:16.293Z,36.50
2018-10-17T19:15:44.539Z,39.43
2018-10-17T19:18:12.690Z,38.83
2018-10-17T19:20:40.753Z,34.13
2018-10-17T19:23:08.911Z,32.90
2018-10-17T19:25:36.933Z,42.37
2018-10-17T19:28:05.234Z,36.23
2018-10-17T19:30:33.259Z,36.37
2018-10-17T19:33:01.428Z,38.87
2018-10-17T19:35:29.418Z,35.67
2018-10-17T19:37:57.564Z,45.20
2018-10-17T19:40:26.262Z,44.23
2018-10-17T19:42:54.316Z,38.37
2018-10-17T19:45:22.323Z,35.93
2018-10-17T19:47:50.483Z,51.47
2018-10-17T19:50:18.506Z,39.87
2018-10-17T19:52:46.555Z,40.67
2018-10-17T19:55:14.576Z,50.73
2018-10-17T19:57:42.623Z,42.10
2018-10-17T20:00:12.461Z,40.30
2018-10-17T20:02:40.854Z,43.93
2018-10-17T20:05:08.896Z,43.13
2018-10-17T20:07:37.238Z,34.87
2018-10-17T20:10:05.310Z,40.27
2018-10-17T20:12:40.213Z,48.93
2018-10-17T20:15:08.309Z,40.43
2018-10-17T20:17:36.275Z,48.03
2018-10-17T20:20:05.174Z,44.03
2018-10-17T20:22:33.220Z,43.60
2018-10-17T20:25:01.398Z,41.50
2018-10-17T20:27:29.381Z,43.30
2018-10-17T20:29:57.385Z,46.63
2018-10-17T20:32:25.469Z,43.67
2018-10-17T20:34:53.572Z,42.03
2018-10-17T20:37:21.554Z,35.67
2018-10-17T20:39:49.687Z,47.30
2018-10-17T20:42:17.822Z,41.80
2018-10-17T20:44:45.849Z,36.83
2018-10-17T20:47:13.946Z,32.67
2018-10-17T20:49:41.948Z,40.33
2018-10-17T20:52:09.994Z,39.40
2018-10-17T20:54:37.997Z,51.20
2018-10-17T20:57:06.215Z,52.80
2018-10-17T20:59:34.258Z,54.77
2018-10-17T21:02:02.339Z,47.50
2018-10-17T21:04:30.310Z,54.07
2018-10-17T21:06:58.315Z,42.83
2018-10-17T21:09:26.402Z,41.87
2018-10-17T21:11:55.431Z,42.83
2018-10-17T21:14:23.482Z,45.27
2018-10-17T21:16:51.860Z,40.93
2018-10-17T21:19:19.910Z,39.90
2018-10-17T21:21:47.914Z,38.00
2018-10-17T21:24:15.946Z,39.03
2018-10-17T21:26:43.972Z,44.17
2018-10-17T21:29:12.027Z,39.23
2018-10-17T21:31:40.066Z,37.10
2018-10-17T21:34:08.095Z,41.53
2018-10-17T21:36:36.121Z,43.37
2018-10-17T21:39:07.495Z,40.80
2018-10-17T21:41:35.551Z,46.20
2018-10-17T21:44:03.733Z,43.50
2018-10-17T21:46:31.706Z,33.73
2018-10-17T21:48:59.745Z,35.90
2018-10-17T21:51:27.767Z,40.80
2018-10-17T21:53:55.767Z,29.60
2018-10-17T21:56:23.961Z,33.57
2018-10-17T21:58:52.134Z,39.13
2018-10-17T22:01:21.303Z,36.37
2018-10-17T22:03:49.375Z,34.47
2018-10-17T22:06:17.411Z,36.60
2018-10-17T22:08:45.658Z,37.50
2018-10-17T22:11:13.722Z,34.40
2018-10-17T22:13:41.832Z,38.73
2018-10-17T22:16:09.938Z,39.43
2018-10-17T22:18:38.078Z,35.90
2018-10-17T22:21:06.078Z,32.00
2018-10-17T22:23:34.461Z,36.77
2018-10-17T22:26:02.670Z,36.63
2018-10-17T22:28:30.569Z,39.80
2018-10-17T22:30:58.654Z,37.43
2018-10-17T22:33:26.669Z,37.40
2018-10-17T22:35:54.665Z,34.37
2018-10-17T22:38:22.702Z,35.00
2018-10-17T22:40:50.737Z,39.77
2018-10-17T22:43:18.729Z,35.00
2018-10-17T22:45:47.021Z,32.80
2018-10-17T22:48:15.029Z,34.17
2018-10-17T22:50:43.017Z,36.97
2018-10-17T22:53:11.105Z,34.63
2018-10-17T22:55:39.182Z,31.30
2018-10-17T22:58:07.228Z,33.87
2018-10-17T23:00:35.298Z,36.90
2018-10-17T23:03:03.358Z,36.10
2018-10-17T23:05:31.366Z,38.83
2018-10-17T23:07:59.515Z,38.33
2018-10-17T23:10:28.361Z,38.00
2018-10-17T23:12:56.362Z,33.40
2018-10-17T23:15:24.373Z,28.57
2018-10-17T23:17:52.485Z,40.10
2018-10-17T23:20:20.512Z,36.70
2018-10-17T23:22:48.544Z,34.17
2018-10-17T23:25:16.614Z,35.00
2018-10-17T23:27:44.674Z,36.60
2018-10-17T23:30:12.675Z,34.20
2018-10-17T23:32:40.974Z,32.30
2018-10-17T23:35:08.978Z,32.73
2018-10-17T23:37:37.049Z,38.00
2018-10-17T23:40:05.909Z,35.20
2018-10-17T23:42:34.012Z,38.90
2018-10-17T23:45:02.042Z,34.30
2018-10-17T23:47:30.160Z,31.73
2018-10-17T23:49:58.296Z,34.30
2018-10-17T23:52:26.363Z,36.43
2018-10-17T23:54:54.367Z,33.73
2018-10-17T23:57:22.445Z,40.90
2018-10-17T23:59:50.450Z,31.93
